createdAt,value
2017-10-11T00:00:00.203Z,0
2017-10-11T00:01:09.137Z,0
2017-10-11T00:02:17.971Z,0
2017-10-11T00:03:26.803Z,0
2017-10-11T00:04:35.982Z,0
2017-10-11T00:05:44.816Z,0
2017-10-11T00:06:53.649Z,0
2017-10-11T00:08:02.480Z,0
2017-10-11T00:09:11.315Z,0
2017-10-11T00:10:20.150Z,0
2017-10-11T00:11:28.983Z,0
2017-10-11T00:12:38.169Z,0
2017-10-11T00:13:47.006Z,0
2017-10-11T00:14:55.839Z,0
2017-10-11T00:16:04.673Z,0
2017-10-11T00:17:13.507Z,0
2017-10-11T00:18:22.539Z,0
2017-10-11T00:19:31.375Z,0
2017-10-11T00:20:40.207Z,0
2017-10-11T00:21:49.041Z,0
2017-10-11T00:22:57.875Z,0
2017-10-11T00:24:06.712Z,0
2017-10-11T00:25:15.540Z,0
2017-10-11T00:26:24.372Z,0
2017-10-11T00:27:33.206Z,0
2017-10-11T00:28:42.047Z,0
2017-10-11T00:29:51.370Z,0
2017-10-11T00:31:00.202Z,0
2017-10-11T00:32:09.035Z,0
2017-10-11T00:33:17.870Z,0
2017-10-11T00:34:26.702Z,0
2017-10-11T00:35:35.635Z,0
2017-10-11T00:36:44.469Z,0
2017-10-11T00:37:53.302Z,0
2017-10-11T00:39:02.135Z,0
2017-10-11T00:40:10.972Z,0
2017-10-11T00:41:19.856Z,0
2017-10-11T00:42:28.691Z,0
2017-10-11T00:43:37.522Z,0
2017-10-11T00:44:46.357Z,0
2017-10-11T00:45:55.189Z,0
2017-10-11T00:47:04.022Z,0
2017-10-11T00:48:12.854Z,0
2017-10-11T00:49:21.687Z,0
2017-10-11T00:50:30.525Z,0
2017-10-11T00:51:39.354Z,0
2017-10-11T00:52:48.338Z,0
2017-10-11T00:53:57.526Z,0
2017-10-11T00:55:06.360Z,0
2017-10-11T00:56:15.193Z,0
2017-10-11T00:57:24.027Z,0
2017-10-11T00:58:32.959Z,0
2017-10-11T00:59:41.794Z,0
2017-10-11T01:00:50.624Z,0
2017-10-11T01:01:59.458Z,0
2017-10-11T01:03:08.289Z,0
2017-10-11T01:04:17.174Z,0
2017-10-11T01:05:26.006Z,0
2017-10-11T01:06:34.843Z,0
2017-10-11T01:07:43.675Z,0
2017-10-11T01:08:52.504Z,0
2017-10-11T01:10:01.340Z,0
2017-10-11T01:11:10.173Z,0
2017-10-11T01:12:19.008Z,0
2017-10-11T01:13:27.839Z,0
2017-10-11T01:14:36.674Z,0
2017-10-11T01:15:45.717Z,0
2017-10-11T01:16:54.900Z,0
2017-10-11T01:18:03.725Z,0
2017-10-11T01:19:12.561Z,0
2017-10-11T01:20:21.397Z,0
2017-10-11T01:21:30.381Z,0
2017-10-11T01:22:39.235Z,0
2017-10-11T01:23:48.050Z,0
2017-10-11T01:24:56.885Z,0
2017-10-11T01:26:05.720Z,0
2017-10-11T01:27:14.753Z,0
2017-10-11T01:28:23.587Z,0
2017-10-11T01:29:32.422Z,0
2017-10-11T01:30:41.253Z,0
2017-10-11T01:31:50.086Z,0
2017-10-11T01:32:59.221Z,0
2017-10-11T01:34:08.054Z,0
2017-10-11T01:35:16.886Z,0
2017-10-11T01:36:25.720Z,0
2017-10-11T01:37:34.550Z,0
2017-10-11T01:38:43.491Z,0
2017-10-11T01:39:52.318Z,0
2017-10-11T01:41:01.150Z,0
2017-10-11T01:42:09.992Z,0
2017-10-11T01:43:18.829Z,0
2017-10-11T01:44:28.062Z,0
2017-10-11T01:45:36.896Z,0
2017-10-11T01:46:45.729Z,0
2017-10-11T01:47:54.559Z,0
2017-10-11T01:49:03.391Z,0
2017-10-11T01:50:12.567Z,0
2017-10-11T01:51:21.399Z,0
2017-10-11T01:52:30.234Z,0
2017-10-11T01:53:39.067Z,0
2017-10-11T01:54:47.899Z,0
2017-10-11T01:55:56.731Z,0
2017-10-11T01:57:05.564Z,0
2017-10-11T01:58:14.398Z,0
2017-10-11T01:59:23.233Z,0
2017-10-11T02:00:32.071Z,0
2017-10-11T02:01:41.049Z,0
2017-10-11T02:02:49.883Z,0
2017-10-11T02:03:58.717Z,0
2017-10-11T02:05:07.553Z,0
2017-10-11T02:06:16.384Z,0
2017-10-11T02:07:25.220Z,0
2017-10-11T02:08:34.054Z,0
2017-10-11T02:09:42.885Z,0
2017-10-11T02:10:51.737Z,0
2017-10-11T02:12:00.553Z,0
2017-10-11T02:13:09.778Z,0
2017-10-11T02:14:18.612Z,0
2017-10-11T02:15:27.446Z,0
2017-10-11T02:16:36.280Z,0
2017-10-11T02:17:45.115Z,0
2017-10-11T02:18:53.996Z,0
2017-10-11T02:20:02.830Z,0
2017-10-11T02:21:11.662Z,0
2017-10-11T02:22:20.496Z,0
2017-10-11T02:23:29.337Z,0
2017-10-11T02:24:38.314Z,0
2017-10-11T02:25:47.147Z,0
2017-10-11T02:26:55.984Z,0
2017-10-11T02:28:05.168Z,0
2017-10-11T02:29:14.002Z,0
2017-10-11T02:30:23.035Z,0
2017-10-11T02:31:31.868Z,0
2017-10-11T02:32:40.702Z,0
2017-10-11T02:33:49.539Z,0
2017-10-11T02:34:58.367Z,0
2017-10-11T02:36:07.503Z,0
2017-10-11T02:37:16.334Z,0
2017-10-11T02:38:25.167Z,0
2017-10-11T02:39:34.001Z,0
2017-10-11T02:40:42.834Z,0
2017-10-11T02:41:51.818Z,0
2017-10-11T02:43:00.652Z,0
2017-10-11T02:44:09.488Z,0
2017-10-11T02:45:18.320Z,0
2017-10-11T02:46:27.155Z,0
2017-10-11T02:47:36.138Z,0
2017-10-11T02:48:44.972Z,0
2017-10-11T02:49:53.808Z,0
2017-10-11T02:51:02.641Z,0
2017-10-11T02:52:11.475Z,0
2017-10-11T02:53:20.708Z,0
2017-10-11T02:54:29.545Z,0
2017-10-11T02:55:38.381Z,0
2017-10-11T02:56:47.214Z,0
2017-10-11T02:57:56.048Z,0
2017-10-11T02:59:05.031Z,0
2017-10-11T03:00:13.866Z,0
2017-10-11T03:01:22.697Z,0
2017-10-11T03:02:31.532Z,0
2017-10-11T03:03:40.365Z,0
2017-10-11T03:04:49.249Z,0
2017-10-11T03:05:58.085Z,0
2017-10-11T03:07:06.918Z,0
2017-10-11T03:08:15.754Z,0
2017-10-11T03:09:24.590Z,0
2017-10-11T03:10:33.471Z,0
2017-10-11T03:11:42.307Z,0
2017-10-11T03:12:51.140Z,0
2017-10-11T03:13:59.974Z,0
2017-10-11T03:15:08.806Z,0
2017-10-11T03:16:17.689Z,0
2017-10-11T03:17:26.522Z,0
2017-10-11T03:18:35.355Z,0
2017-10-11T03:19:44.194Z,0
2017-10-11T03:20:53.031Z,0
2017-10-11T03:22:01.908Z,0
2017-10-11T03:23:10.741Z,0
2017-10-11T03:24:19.575Z,0
2017-10-11T03:25:28.408Z,0
2017-10-11T03:26:37.240Z,0
2017-10-11T03:27:46.468Z,0
2017-10-11T03:28:55.300Z,0
2017-10-11T03:30:04.139Z,0
2017-10-11T03:31:13.329Z,0
2017-10-11T03:32:22.158Z,0
2017-10-11T03:33:30.989Z,0
2017-10-11T03:34:39.820Z,0
2017-10-11T03:35:48.653Z,0
2017-10-11T03:36:57.488Z,0
2017-10-11T03:38:06.320Z,0
2017-10-11T03:39:15.252Z,0
2017-10-11T03:40:24.139Z,0
2017-10-11T03:41:32.972Z,0
2017-10-11T03:42:41.806Z,0
2017-10-11T03:43:50.639Z,0
2017-10-11T03:44:59.917Z,0
2017-10-11T03:46:08.751Z,0
2017-10-11T03:47:17.583Z,0
2017-10-11T03:48:26.416Z,0
2017-10-11T03:49:35.602Z,0
2017-10-11T03:50:44.635Z,0
2017-10-11T03:51:53.467Z,0
2017-10-11T03:53:02.298Z,0
2017-10-11T03:54:11.132Z,0
2017-10-11T03:55:19.964Z,0
2017-10-11T03:56:28.947Z,0
2017-10-11T03:57:37.780Z,0
2017-10-11T03:58:46.614Z,0
2017-10-11T03:59:55.448Z,0
2017-10-11T04:01:04.281Z,0
2017-10-11T04:02:13.316Z,0
2017-10-11T04:03:22.150Z,0
2017-10-11T04:04:30.984Z,0
2017-10-11T04:05:39.818Z,0
2017-10-11T04:06:48.653Z,0
2017-10-11T04:07:57.584Z,0
2017-10-11T04:09:06.421Z,0
2017-10-11T04:10:15.253Z,0
2017-10-11T04:11:24.429Z,0
2017-10-11T04:12:33.265Z,0
2017-10-11T04:13:42.399Z,0
2017-10-11T04:14:51.233Z,0
2017-10-11T04:16:00.067Z,0
2017-10-11T04:17:08.900Z,0
2017-10-11T04:18:17.735Z,0
2017-10-11T04:19:26.719Z,0
2017-10-11T04:20:35.555Z,0
2017-10-11T04:21:44.393Z,0
2017-10-11T04:22:53.221Z,0
2017-10-11T04:24:02.052Z,0
2017-10-11T04:25:10.887Z,0
2017-10-11T04:26:19.737Z,0
2017-10-11T04:27:28.553Z,0
2017-10-11T04:28:37.387Z,0
2017-10-11T04:29:46.220Z,0
2017-10-11T04:30:55.305Z,0
2017-10-11T04:32:04.145Z,0
2017-10-11T04:33:12.974Z,0
2017-10-11T04:34:21.806Z,0
2017-10-11T04:35:30.640Z,0
2017-10-11T04:36:39.622Z,0
2017-10-11T04:37:48.456Z,0
2017-10-11T04:38:57.292Z,0
2017-10-11T04:40:06.123Z,0
2017-10-11T04:41:14.956Z,0
2017-10-11T04:42:23.791Z,0
2017-10-11T04:43:32.621Z,0
2017-10-11T04:44:41.454Z,0
2017-10-11T04:45:50.288Z,0
2017-10-11T04:46:59.118Z,0
2017-10-11T04:48:08.001Z,0
2017-10-11T04:49:16.835Z,0
2017-10-11T04:50:25.669Z,0
2017-10-11T04:51:34.850Z,0
2017-10-11T04:52:43.685Z,0
2017-10-11T04:53:52.617Z,0
2017-10-11T04:55:01.450Z,0
2017-10-11T04:56:10.284Z,0
2017-10-11T04:57:19.117Z,0
2017-10-11T04:58:27.959Z,0
2017-10-11T04:59:36.892Z,0
2017-10-11T05:00:45.725Z,0
2017-10-11T05:01:54.941Z,0
2017-10-11T05:03:03.775Z,0
2017-10-11T05:04:12.606Z,0
2017-10-11T05:05:21.540Z,0
2017-10-11T05:06:30.376Z,0
2017-10-11T05:07:39.206Z,0
2017-10-11T05:08:48.038Z,0
2017-10-11T05:09:56.871Z,0
2017-10-11T05:11:06.248Z,0
2017-10-11T05:12:15.082Z,0
2017-10-11T05:13:23.919Z,0
2017-10-11T05:14:32.755Z,0
2017-10-11T05:15:41.582Z,0
2017-10-11T05:16:50.667Z,0
2017-10-11T05:17:59.527Z,0
2017-10-11T05:19:08.340Z,0
2017-10-11T05:20:17.173Z,0
2017-10-11T05:21:26.006Z,0
2017-10-11T05:22:34.989Z,0
2017-10-11T05:23:43.821Z,0
2017-10-11T05:24:52.654Z,0
2017-10-11T05:26:01.486Z,0
2017-10-11T05:27:10.322Z,0
2017-10-11T05:28:19.451Z,4
2017-10-11T05:29:28.283Z,4
2017-10-11T05:30:37.116Z,8
2017-10-11T05:31:45.953Z,8
2017-10-11T05:32:54.782Z,8
2017-10-11T05:34:04.016Z,8
2017-10-11T05:35:12.849Z,8
2017-10-11T05:36:21.680Z,12
2017-10-11T05:37:30.513Z,16
2017-10-11T05:38:39.344Z,28
2017-10-11T05:39:48.276Z,20
2017-10-11T05:40:57.110Z,20
2017-10-11T05:42:05.950Z,28
2017-10-11T05:43:15.473Z,24
2017-10-11T05:44:24.308Z,32
2017-10-11T05:45:33.189Z,32
2017-10-11T05:46:42.025Z,32
2017-10-11T05:47:50.859Z,32
2017-10-11T05:48:59.694Z,36
2017-10-11T05:50:08.525Z,32
2017-10-11T05:51:17.506Z,32
2017-10-11T05:52:26.685Z,40
2017-10-11T05:53:35.519Z,52
2017-10-11T05:54:44.352Z,48
2017-10-11T05:55:53.183Z,60
2017-10-11T05:57:02.166Z,80
2017-10-11T05:58:11.001Z,84
2017-10-11T05:59:19.833Z,124
2017-10-11T06:00:28.669Z,136
2017-10-11T06:01:37.504Z,116
2017-10-11T06:02:46.384Z,92
2017-10-11T06:03:55.219Z,80
2017-10-11T06:05:04.054Z,104
2017-10-11T06:06:12.888Z,112
2017-10-11T06:07:21.720Z,92
2017-10-11T06:08:30.653Z,128
2017-10-11T06:09:39.488Z,88
2017-10-11T06:10:48.668Z,148
2017-10-11T06:11:57.499Z,204
2017-10-11T06:13:06.333Z,224
2017-10-11T06:14:15.218Z,180
2017-10-11T06:15:24.394Z,244
2017-10-11T06:16:33.225Z,300
2017-10-11T06:17:42.399Z,328
2017-10-11T06:18:51.573Z,420
2017-10-11T06:20:00.659Z,384
2017-10-11T06:21:09.491Z,384
2017-10-11T06:22:18.327Z,276
2017-10-11T06:23:27.157Z,252
2017-10-11T06:24:35.991Z,232
2017-10-11T06:25:45.097Z,272
2017-10-11T06:26:53.909Z,172
2017-10-11T06:28:02.743Z,192
2017-10-11T06:29:11.578Z,152
2017-10-11T06:30:20.412Z,168
2017-10-11T06:31:29.296Z,216
2017-10-11T06:32:38.127Z,316
2017-10-11T06:33:46.961Z,368
2017-10-11T06:34:55.798Z,584
2017-10-11T06:36:04.976Z,400
2017-10-11T06:37:14.009Z,344
2017-10-11T06:38:22.894Z,276
2017-10-11T06:39:31.729Z,240
2017-10-11T06:40:40.561Z,260
2017-10-11T06:41:49.394Z,340
2017-10-11T06:42:58.227Z,472
2017-10-11T06:44:07.061Z,416
2017-10-11T06:45:15.894Z,512
2017-10-11T06:46:24.728Z,424
2017-10-11T06:47:33.909Z,408
2017-10-11T06:48:42.740Z,312
2017-10-11T06:49:51.616Z,376
2017-10-11T06:51:00.508Z,472
2017-10-11T06:52:09.405Z,484
2017-10-11T06:53:18.250Z,420
2017-10-11T06:54:27.136Z,468
2017-10-11T06:55:36.312Z,416
2017-10-11T06:56:45.145Z,380
2017-10-11T06:57:53.980Z,360
2017-10-11T06:59:02.814Z,376
2017-10-11T07:00:11.709Z,440
2017-10-11T07:01:20.545Z,532
2017-10-11T07:02:29.382Z,644
2017-10-11T07:03:38.209Z,596
2017-10-11T07:04:47.043Z,572
2017-10-11T07:05:56.394Z,488
2017-10-11T07:07:05.240Z,364
2017-10-11T07:08:14.062Z,300
2017-10-11T07:09:22.893Z,308
2017-10-11T07:10:31.725Z,292
2017-10-11T07:11:40.661Z,320
2017-10-11T07:12:49.836Z,300
2017-10-11T07:13:58.668Z,360
2017-10-11T07:15:07.505Z,436
2017-10-11T07:16:16.333Z,452
2017-10-11T07:17:25.468Z,504
2017-10-11T07:18:34.304Z,368
2017-10-11T07:19:43.136Z,328
2017-10-11T07:20:51.968Z,460
2017-10-11T07:22:00.802Z,544
2017-10-11T07:23:09.790Z,668
2017-10-11T07:24:18.621Z,716
2017-10-11T07:25:27.456Z,640
2017-10-11T07:26:36.290Z,876
2017-10-11T07:27:45.123Z,888
2017-10-11T07:28:53.955Z,1192
2017-10-11T07:30:02.790Z,1372
2017-10-11T07:31:11.631Z,1292
2017-10-11T07:32:20.472Z,1856
2017-10-11T07:33:29.642Z,1916
2017-10-11T07:34:38.623Z,1680
2017-10-11T07:35:47.473Z,2020
2017-10-11T07:36:56.630Z,2448
2017-10-11T07:38:05.474Z,2524
2017-10-11T07:39:14.305Z,2896
2017-10-11T07:40:23.387Z,3180
2017-10-11T07:41:32.225Z,2916
2017-10-11T07:42:41.063Z,2064
2017-10-11T07:43:50.252Z,1276
2017-10-11T07:44:59.088Z,1356
2017-10-11T07:46:07.970Z,1368
2017-10-11T07:47:16.804Z,1976
2017-10-11T07:48:26.006Z,1424
2017-10-11T07:49:34.840Z,1568
2017-10-11T07:50:43.674Z,1804
2017-10-11T07:51:52.659Z,2156
2017-10-11T07:53:01.494Z,2120
2017-10-11T07:54:10.325Z,2436
2017-10-11T07:55:19.158Z,2552
2017-10-11T07:56:27.993Z,2536
2017-10-11T07:57:37.028Z,2688
2017-10-11T07:58:45.861Z,3140
2017-10-11T07:59:54.697Z,3296
2017-10-11T08:01:03.529Z,3536
2017-10-11T08:02:12.366Z,2444
2017-10-11T08:03:21.343Z,2024
2017-10-11T08:04:30.185Z,2248
2017-10-11T08:05:39.021Z,2496
2017-10-11T08:06:48.195Z,2652
2017-10-11T08:07:57.029Z,2268
2017-10-11T08:09:05.864Z,2788
2017-10-11T08:10:14.698Z,2516
2017-10-11T08:11:23.537Z,3880
2017-10-11T08:12:32.366Z,3732
2017-10-11T08:13:41.198Z,3596
2017-10-11T08:14:50.085Z,3868
2017-10-11T08:15:59.264Z,3976
2017-10-11T08:17:08.098Z,4200
2017-10-11T08:18:17.278Z,3924
2017-10-11T08:19:26.112Z,3444
2017-10-11T08:20:34.946Z,3020
2017-10-11T08:21:43.782Z,3880
2017-10-11T08:22:52.617Z,3652
2017-10-11T08:24:01.452Z,3320
2017-10-11T08:25:10.285Z,4676
2017-10-11T08:26:19.168Z,4496
2017-10-11T08:27:28.004Z,4296
2017-10-11T08:28:36.836Z,4160
2017-10-11T08:29:46.024Z,4368
2017-10-11T08:30:54.858Z,4280
2017-10-11T08:32:03.893Z,3672
2017-10-11T08:33:12.728Z,3320
2017-10-11T08:34:21.917Z,2548
2017-10-11T08:35:30.762Z,2516
2017-10-11T08:36:39.589Z,4828
2017-10-11T08:37:48.472Z,4332
2017-10-11T08:38:57.655Z,3856
2017-10-11T08:40:06.493Z,3888
2017-10-11T08:41:15.329Z,2992
2017-10-11T08:42:24.163Z,1716
2017-10-11T08:43:32.995Z,1828
2017-10-11T08:44:41.830Z,2092
2017-10-11T08:45:50.664Z,1872
2017-10-11T08:46:59.499Z,2148
2017-10-11T08:48:08.335Z,1984
2017-10-11T08:49:17.317Z,2064
2017-10-11T08:50:26.152Z,2276
2017-10-11T08:51:34.986Z,3104
2017-10-11T08:52:44.180Z,2920
2017-10-11T08:53:53.006Z,2980
2017-10-11T08:55:01.889Z,2680
2017-10-11T08:56:10.724Z,2248
2017-10-11T08:57:19.565Z,1460
2017-10-11T08:58:28.395Z,1548
2017-10-11T08:59:37.225Z,1356
2017-10-11T09:00:46.109Z,1620
2017-10-11T09:01:54.942Z,2516
2017-10-11T09:03:03.781Z,2452
2017-10-11T09:04:12.616Z,2660
2017-10-11T09:05:21.455Z,2524
2017-10-11T09:06:30.434Z,2500
2017-10-11T09:07:39.272Z,2804
2017-10-11T09:08:48.106Z,3032
2017-10-11T09:09:56.942Z,2708
2017-10-11T09:11:06.125Z,3420
2017-10-11T09:12:15.261Z,3944
2017-10-11T09:13:24.093Z,2516
2017-10-11T09:14:32.926Z,2352
2017-10-11T09:15:41.760Z,2952
2017-10-11T09:16:50.595Z,1732
2017-10-11T09:17:59.630Z,1972
2017-10-11T09:19:08.463Z,2032
2017-10-11T09:20:17.296Z,2916
2017-10-11T09:21:26.131Z,3192
2017-10-11T09:22:34.966Z,2220
2017-10-11T09:23:43.848Z,2932
2017-10-11T09:24:52.682Z,3052
2017-10-11T09:26:01.516Z,2944
2017-10-11T09:27:10.347Z,3148
2017-10-11T09:28:19.180Z,3444
2017-10-11T09:29:28.115Z,3204
2017-10-11T09:30:36.949Z,2804
2017-10-11T09:31:45.783Z,3576
2017-10-11T09:32:54.616Z,3172
2017-10-11T09:34:03.452Z,2212
2017-10-11T09:35:12.904Z,2604
2017-10-11T09:36:21.739Z,3232
2017-10-11T09:37:30.920Z,3376
2017-10-11T09:38:39.758Z,3104
2017-10-11T09:39:48.590Z,3456
2017-10-11T09:40:57.726Z,4460
2017-10-11T09:42:06.561Z,3108
2017-10-11T09:43:15.397Z,3180
2017-10-11T09:44:24.233Z,3492
2017-10-11T09:45:33.068Z,2724
2017-10-11T09:46:42.746Z,2292
2017-10-11T09:47:51.580Z,3012
2017-10-11T09:49:00.416Z,3024
2017-10-11T09:50:09.253Z,2776
2017-10-11T09:51:18.087Z,3216
2017-10-11T09:52:27.222Z,5292
2017-10-11T09:53:36.057Z,4500
2017-10-11T09:54:44.908Z,3592
2017-10-11T09:55:53.738Z,2692
2017-10-11T09:57:02.574Z,3068
2017-10-11T09:58:12.007Z,2628
2017-10-11T09:59:20.841Z,2164
2017-10-11T10:00:29.689Z,2132
2017-10-11T10:01:38.542Z,2220
2017-10-11T10:02:47.357Z,1960
2017-10-11T10:03:56.292Z,1876
2017-10-11T10:05:05.130Z,2280
2017-10-11T10:06:13.962Z,1724
2017-10-11T10:07:22.797Z,1824
2017-10-11T10:08:31.634Z,1856
2017-10-11T10:09:40.470Z,1688
2017-10-11T10:10:49.313Z,1456
2017-10-11T10:11:58.146Z,1620
2017-10-11T10:13:06.982Z,1356
2017-10-11T10:14:15.815Z,1472
2017-10-11T10:15:24.650Z,1548
2017-10-11T10:16:33.829Z,1232
2017-10-11T10:17:42.662Z,1280
2017-10-11T10:18:51.499Z,1076
2017-10-11T10:20:00.334Z,1220
2017-10-11T10:21:09.422Z,1312
2017-10-11T10:22:18.262Z,1456
2017-10-11T10:23:27.091Z,1688
2017-10-11T10:24:35.924Z,1856
2017-10-11T10:25:44.758Z,2404
2017-10-11T10:26:53.596Z,2712
2017-10-11T10:28:02.776Z,2336
2017-10-11T10:29:11.612Z,2028
2017-10-11T10:30:20.447Z,2168
2017-10-11T10:31:29.283Z,2088
2017-10-11T10:32:38.438Z,2220
2017-10-11T10:33:47.256Z,2132
2017-10-11T10:34:56.091Z,2468
2017-10-11T10:36:04.924Z,2728
2017-10-11T10:37:13.775Z,3408
2017-10-11T10:38:22.942Z,2988
2017-10-11T10:39:31.771Z,1812
2017-10-11T10:40:40.606Z,1964
2017-10-11T10:41:49.444Z,2092
2017-10-11T10:42:58.278Z,2048
2017-10-11T10:44:07.163Z,1800
2017-10-11T10:45:15.996Z,1332
2017-10-11T10:46:24.832Z,1420
2017-10-11T10:47:33.667Z,1440
2017-10-11T10:48:42.502Z,1500
2017-10-11T10:49:51.436Z,1332
2017-10-11T10:51:00.272Z,1328
2017-10-11T10:52:09.105Z,1460
2017-10-11T10:53:17.938Z,1580
2017-10-11T10:54:26.771Z,1856
2017-10-11T10:55:35.656Z,1844
2017-10-11T10:56:44.490Z,2220
2017-10-11T10:57:53.324Z,2668
2017-10-11T10:59:02.157Z,2664
2017-10-11T11:00:11.000Z,2248
2017-10-11T11:01:20.025Z,2308
2017-10-11T11:02:28.910Z,2208
2017-10-11T11:03:37.743Z,2600
2017-10-11T11:04:46.579Z,2264
2017-10-11T11:05:55.411Z,2624
2017-10-11T11:07:04.296Z,2916
2017-10-11T11:08:13.131Z,2544
2017-10-11T11:09:21.965Z,2668
2017-10-11T11:10:30.799Z,2820
2017-10-11T11:11:39.631Z,2436
2017-10-11T11:12:48.615Z,2204
2017-10-11T11:13:57.448Z,1948
2017-10-11T11:15:06.282Z,2384
2017-10-11T11:16:15.116Z,2076
2017-10-11T11:17:23.950Z,2100
2017-10-11T11:18:33.085Z,2032
2017-10-11T11:19:41.920Z,2072
2017-10-11T11:20:50.754Z,2392
2017-10-11T11:21:59.587Z,2536
2017-10-11T11:23:08.422Z,2992
2017-10-11T11:24:17.412Z,2932
2017-10-11T11:25:26.244Z,2652
2017-10-11T11:26:35.078Z,2508
2017-10-11T11:27:43.909Z,3320
2017-10-11T11:28:52.744Z,3468
2017-10-11T11:30:01.678Z,4064
2017-10-11T11:31:10.512Z,5984
2017-10-11T11:32:19.346Z,4252
2017-10-11T11:33:28.180Z,4300
2017-10-11T11:34:37.016Z,5204
2017-10-11T11:35:46.152Z,3956
2017-10-11T11:36:54.986Z,3484
2017-10-11T11:38:03.821Z,4420
2017-10-11T11:39:12.654Z,5000
2017-10-11T11:40:21.489Z,4576
2017-10-11T11:41:30.474Z,3780
2017-10-11T11:42:39.309Z,3540
2017-10-11T11:43:48.144Z,3684
2017-10-11T11:44:56.980Z,5432
2017-10-11T11:46:05.818Z,3040
2017-10-11T11:47:14.704Z,3352
2017-10-11T11:48:23.562Z,3040
2017-10-11T11:49:32.373Z,4088
2017-10-11T11:50:41.208Z,4256
2017-10-11T11:51:50.054Z,3504
2017-10-11T11:52:58.976Z,3704
2017-10-11T11:54:07.811Z,2728
2017-10-11T11:55:16.995Z,2740
2017-10-11T11:56:25.830Z,4172
2017-10-11T11:57:34.666Z,3160
2017-10-11T11:58:43.801Z,2708
2017-10-11T11:59:52.636Z,2844
2017-10-11T12:01:01.470Z,3828
2017-10-11T12:02:10.304Z,4124
2017-10-11T12:03:19.141Z,4408
2017-10-11T12:04:28.024Z,4740
2017-10-11T12:05:36.858Z,5928
2017-10-11T12:06:45.693Z,5612
2017-10-11T12:07:54.524Z,5304
2017-10-11T12:09:03.360Z,5484
2017-10-11T12:10:12.242Z,6440
2017-10-11T12:11:21.075Z,4768
2017-10-11T12:12:29.911Z,5820
2017-10-11T12:13:38.746Z,5452
2017-10-11T12:14:47.580Z,8052
2017-10-11T12:15:56.562Z,8088
2017-10-11T12:17:05.397Z,6352
2017-10-11T12:18:14.232Z,4928
2017-10-11T12:19:23.070Z,5264
2017-10-11T12:20:31.903Z,4856
2017-10-11T12:21:40.788Z,5212
2017-10-11T12:22:49.624Z,6180
2017-10-11T12:23:58.459Z,5700
2017-10-11T12:25:07.301Z,5080
2017-10-11T12:26:16.130Z,3680
2017-10-11T12:27:25.014Z,4372
2017-10-11T12:28:33.850Z,3812
2017-10-11T12:29:42.682Z,2112
2017-10-11T12:30:51.515Z,2244
2017-10-11T12:32:00.350Z,3716
2017-10-11T12:33:09.234Z,5864
2017-10-11T12:34:18.071Z,7908
2017-10-11T12:35:27.592Z,8200
2017-10-11T12:36:36.426Z,6444
2017-10-11T12:37:45.260Z,5476
2017-10-11T12:38:54.298Z,5408
2017-10-11T12:40:03.136Z,4700
2017-10-11T12:41:11.979Z,3884
2017-10-11T12:42:20.807Z,3264
2017-10-11T12:43:29.644Z,2712
2017-10-11T12:44:38.633Z,2356
2017-10-11T12:45:47.465Z,1372
2017-10-11T12:46:56.304Z,1372
2017-10-11T12:48:05.139Z,1352
2017-10-11T12:49:13.971Z,1492
2017-10-11T12:50:23.016Z,1056
2017-10-11T12:51:31.839Z,1100
2017-10-11T12:52:40.677Z,1384
2017-10-11T12:53:49.509Z,1360
2017-10-11T12:54:58.343Z,1152
2017-10-11T12:56:07.228Z,1376
2017-10-11T12:57:16.065Z,1228
2017-10-11T12:58:24.900Z,1116
2017-10-11T12:59:33.738Z,1264
2017-10-11T13:00:42.586Z,1228
2017-10-11T13:01:51.662Z,1564
2017-10-11T13:03:00.496Z,1400
2017-10-11T13:04:09.333Z,1440
2017-10-11T13:05:18.170Z,1800
2017-10-11T13:06:27.007Z,1956
2017-10-11T13:07:36.047Z,2380
2017-10-11T13:08:44.877Z,2328
2017-10-11T13:09:54.404Z,1820
2017-10-11T13:11:03.237Z,2168
2017-10-11T13:12:12.070Z,2256
2017-10-11T13:13:21.104Z,2236
2017-10-11T13:14:29.938Z,1800
2017-10-11T13:15:38.772Z,1864
2017-10-11T13:16:47.606Z,2120
2017-10-11T13:17:56.439Z,2096
2017-10-11T13:19:05.573Z,2284
2017-10-11T13:20:14.408Z,3604
2017-10-11T13:21:23.245Z,3584
2017-10-11T13:22:32.075Z,4548
2017-10-11T13:23:40.911Z,3572
2017-10-11T13:24:50.050Z,3316
2017-10-11T13:25:59.228Z,3368
2017-10-11T13:27:08.064Z,4076
2017-10-11T13:28:16.900Z,5596
2017-10-11T13:29:25.735Z,5144
2017-10-11T13:30:34.722Z,4584
2017-10-11T13:31:43.559Z,5372
2017-10-11T13:32:52.396Z,5624
2017-10-11T13:34:01.233Z,4392
2017-10-11T13:35:10.068Z,4188
2017-10-11T13:36:19.054Z,4484
2017-10-11T13:37:27.889Z,4412
2017-10-11T13:38:36.727Z,4296
2017-10-11T13:39:45.561Z,3024
2017-10-11T13:40:54.397Z,2472
2017-10-11T13:42:03.283Z,2240
2017-10-11T13:43:12.116Z,2796
2017-10-11T13:44:20.969Z,3992
2017-10-11T13:45:29.785Z,4040
2017-10-11T13:46:38.621Z,4148
2017-10-11T13:47:47.605Z,4112
2017-10-11T13:48:56.438Z,3700
2017-10-11T13:50:05.271Z,3432
2017-10-11T13:51:14.105Z,3132
2017-10-11T13:52:23.630Z,3224
2017-10-11T13:53:32.520Z,3456
2017-10-11T13:54:41.705Z,2960
2017-10-11T13:55:50.541Z,2872
2017-10-11T13:56:59.376Z,2768
2017-10-11T13:58:08.209Z,2444
2017-10-11T13:59:17.096Z,2244
2017-10-11T14:00:25.929Z,1948
2017-10-11T14:01:34.774Z,1864
2017-10-11T14:02:43.601Z,1824
2017-10-11T14:03:52.438Z,1844
2017-10-11T14:05:01.375Z,1744
2017-10-11T14:06:10.217Z,1960
2017-10-11T14:07:19.393Z,1708
2017-10-11T14:08:28.229Z,1524
2017-10-11T14:09:37.063Z,1544
2017-10-11T14:10:46.200Z,1608
2017-10-11T14:11:55.032Z,1484
2017-10-11T14:13:03.867Z,1408
2017-10-11T14:14:12.701Z,1396
2017-10-11T14:15:21.884Z,1472
2017-10-11T14:16:31.026Z,1728
2017-10-11T14:17:39.856Z,1352
2017-10-11T14:18:48.689Z,1344
2017-10-11T14:19:57.522Z,1240
2017-10-11T14:21:06.358Z,1584
2017-10-11T14:22:15.247Z,1720
2017-10-11T14:23:24.079Z,1300
2017-10-11T14:24:32.913Z,884
2017-10-11T14:25:41.745Z,728
2017-10-11T14:26:50.583Z,1028
2017-10-11T14:27:59.617Z,1056
2017-10-11T14:29:08.452Z,1172
2017-10-11T14:30:17.289Z,1368
2017-10-11T14:31:26.123Z,1372
2017-10-11T14:32:34.967Z,1064
2017-10-11T14:33:43.945Z,904
2017-10-11T14:34:52.779Z,788
2017-10-11T14:36:01.614Z,896
2017-10-11T14:37:10.448Z,1020
2017-10-11T14:38:19.282Z,1052
2017-10-11T14:39:28.218Z,964
2017-10-11T14:40:37.051Z,1008
2017-10-11T14:41:45.885Z,1192
2017-10-11T14:42:54.726Z,1276
2017-10-11T14:44:03.902Z,1180
2017-10-11T14:45:12.938Z,1180
2017-10-11T14:46:21.774Z,1284
2017-10-11T14:47:30.608Z,1296
2017-10-11T14:48:39.443Z,1272
2017-10-11T14:49:48.277Z,1284
2017-10-11T14:50:57.212Z,1272
2017-10-11T14:52:06.047Z,1288
2017-10-11T14:53:14.882Z,1360
2017-10-11T14:54:23.767Z,1264
2017-10-11T14:55:32.601Z,1168
2017-10-11T14:56:41.644Z,1040
2017-10-11T14:57:50.472Z,1056
2017-10-11T14:58:59.307Z,988
2017-10-11T15:00:08.149Z,792
2017-10-11T15:01:16.986Z,688
2017-10-11T15:02:26.025Z,736
2017-10-11T15:03:34.863Z,704
2017-10-11T15:04:44.037Z,580
2017-10-11T15:05:52.872Z,436
2017-10-11T15:07:01.708Z,436
2017-10-11T15:08:10.696Z,432
2017-10-11T15:09:19.531Z,404
2017-10-11T15:10:28.359Z,452
2017-10-11T15:11:37.194Z,528
2017-10-11T15:12:46.027Z,672
2017-10-11T15:13:55.114Z,688
2017-10-11T15:15:03.948Z,856
2017-10-11T15:16:12.793Z,968
2017-10-11T15:17:21.626Z,968
2017-10-11T15:18:30.460Z,948
2017-10-11T15:19:39.594Z,944
2017-10-11T15:20:48.431Z,1056
2017-10-11T15:21:57.265Z,1052
2017-10-11T15:23:06.098Z,968
2017-10-11T15:24:14.931Z,920
2017-10-11T15:25:24.291Z,776
2017-10-11T15:26:33.125Z,700
2017-10-11T15:27:41.960Z,612
2017-10-11T15:28:50.819Z,568
2017-10-11T15:29:59.998Z,592
2017-10-11T15:31:08.841Z,552
2017-10-11T15:32:17.674Z,536
2017-10-11T15:33:26.510Z,520
2017-10-11T15:34:35.343Z,452
2017-10-11T15:35:44.182Z,384
2017-10-11T15:36:53.118Z,380
2017-10-11T15:38:01.951Z,360
2017-10-11T15:39:10.787Z,372
2017-10-11T15:40:19.620Z,392
2017-10-11T15:41:29.157Z,344
2017-10-11T15:42:38.191Z,308
2017-10-11T15:43:47.022Z,284
2017-10-11T15:44:55.854Z,260
2017-10-11T15:46:04.688Z,256
2017-10-11T15:47:13.523Z,280
2017-10-11T15:48:22.409Z,288
2017-10-11T15:49:31.240Z,268
2017-10-11T15:50:40.074Z,300
2017-10-11T15:51:48.908Z,320
2017-10-11T15:52:57.739Z,300
2017-10-11T15:54:06.573Z,228
2017-10-11T15:55:15.407Z,216
2017-10-11T15:56:24.242Z,232